createdAt,value
2018-12-14T00:01:04.592Z,16.03
2018-12-14T00:03:35.980Z,16.00
2018-12-14T00:06:07.566Z,13.23
2018-12-14T00:08:38.980Z,16.80
2018-12-14T00:11:10.578Z,17.17
2018-12-14T00:13:42.369Z,20.27
2018-12-14T00:16:13.892Z,16.27
2018-12-14T00:18:45.491Z,17.57
2018-12-14T00:21:16.991Z,18.43
2018-12-14T00:23:48.535Z,16.27
2018-12-14T00:26:19.991Z,16.13
2018-12-14T00:28:51.602Z,14.97
2018-12-14T00:31:23.114Z,15.47
2018-12-14T00:33:54.705Z,15.27
2018-12-14T00:36:26.235Z,17.87
2018-12-14T00:38:57.980Z,18.53
2018-12-14T00:41:29.488Z,16.87
2018-12-14T00:44:01.061Z,18.90
2018-12-14T00:46:32.343Z,17.37
2018-12-14T00:49:03.967Z,17.73
2018-12-14T00:51:35.392Z,16.17
2018-12-14T00:54:06.987Z,16.13
2018-12-14T00:56:38.393Z,18.30
2018-12-14T00:59:09.972Z,15.93
2018-12-14T01:01:41.600Z,17.03
2018-12-14T01:04:13.103Z,16.00
2018-12-14T01:06:44.646Z,19.00
2018-12-14T01:09:16.055Z,15.77
2018-12-14T01:11:47.616Z,16.90
2018-12-14T01:14:19.260Z,16.63
2018-12-14T01:16:50.855Z,12.87
2018-12-14T01:19:22.408Z,16.87
2018-12-14T01:21:53.965Z,18.50
2018-12-14T01:24:25.399Z,17.50
2018-12-14T01:26:56.974Z,15.60
2018-12-14T01:29:28.573Z,17.20
2018-12-14T01:31:59.982Z,17.43
2018-12-14T01:34:31.386Z,18.20
2018-12-14T01:37:02.979Z,15.00
2018-12-14T01:39:34.596Z,15.80
2018-12-14T01:42:06.110Z,16.83
2018-12-14T01:44:37.698Z,17.83
2018-12-14T01:47:09.227Z,14.73
2018-12-14T01:49:40.807Z,15.80
2018-12-14T01:52:12.325Z,16.13
2018-12-14T01:54:43.891Z,15.67
2018-12-14T01:57:15.410Z,15.90
2018-12-14T01:59:47.025Z,14.03
2018-12-14T02:02:18.532Z,15.77
2018-12-14T02:04:50.083Z,17.73
2018-12-14T02:07:21.534Z,15.37
2018-12-14T02:09:53.139Z,16.03
2018-12-14T02:12:24.643Z,16.37
2018-12-14T02:14:56.183Z,17.07
2018-12-14T02:17:27.687Z,13.73
2018-12-14T02:19:59.499Z,12.70
2018-12-14T02:22:30.963Z,19.70
2018-12-14T02:25:02.504Z,16.27
2018-12-14T02:27:33.971Z,16.90
2018-12-14T02:30:20.358Z,20.50
2018-12-14T02:32:51.902Z,16.47
2018-12-14T02:35:23.536Z,15.33
2018-12-14T02:37:55.399Z,16.90
2018-12-14T02:40:27.020Z,14.93
2018-12-14T02:42:58.462Z,14.80
2018-12-14T02:45:30.049Z,15.07
2018-12-14T02:48:01.574Z,13.83
2018-12-14T02:50:33.172Z,16.63
2018-12-14T02:53:04.678Z,18.33
2018-12-14T02:55:36.212Z,14.97
2018-12-14T02:58:07.666Z,13.77
2018-12-14T03:00:39.433Z,15.27
2018-12-14T03:03:10.881Z,14.47
2018-12-14T03:05:42.434Z,16.53
2018-12-14T03:08:13.841Z,15.47
2018-12-14T03:10:45.447Z,16.30
2018-12-14T03:13:16.885Z,12.87
2018-12-14T03:15:48.436Z,16.93
2018-12-14T03:18:19.909Z,14.77
2018-12-14T03:20:51.309Z,17.40
2018-12-14T03:23:22.927Z,16.33
2018-12-14T03:25:54.848Z,16.33
2018-12-14T03:28:26.317Z,13.83
2018-12-14T03:30:57.866Z,16.90
2018-12-14T03:33:29.322Z,16.70
2018-12-14T03:36:00.862Z,13.77
2018-12-14T03:38:32.325Z,16.07
2018-12-14T03:41:03.940Z,15.63
2018-12-14T03:43:35.436Z,15.83
2018-12-14T03:46:06.989Z,17.27
2018-12-14T03:48:38.884Z,12.97
2018-12-14T03:51:10.499Z,17.13
2018-12-14T03:53:41.917Z,17.03
2018-12-14T03:56:13.496Z,15.37
2018-12-14T03:58:45.050Z,18.67
2018-12-14T04:01:16.615Z,19.93
2018-12-14T04:03:48.035Z,16.60
2018-12-14T04:06:19.504Z,17.20
2018-12-14T04:08:51.134Z,16.87
2018-12-14T04:11:22.589Z,17.37
2018-12-14T04:13:54.236Z,16.37
2018-12-14T04:16:25.743Z,20.13
2018-12-14T04:18:57.287Z,17.37
2018-12-14T04:21:28.751Z,15.23
2018-12-14T04:24:00.350Z,13.43
2018-12-14T04:26:31.856Z,17.60
2018-12-14T04:29:03.274Z,15.30
2018-12-14T04:31:34.857Z,16.73
2018-12-14T04:34:06.307Z,13.27
2018-12-14T04:36:37.757Z,21.00
2018-12-14T04:39:09.780Z,14.97
2018-12-14T04:41:41.281Z,14.57
2018-12-14T04:44:12.886Z,12.50
2018-12-14T04:46:44.382Z,16.87
2018-12-14T04:49:15.990Z,14.67
2018-12-14T04:51:47.496Z,17.30
2018-12-14T04:54:19.089Z,17.77
2018-12-14T04:56:50.611Z,17.27
2018-12-14T04:59:22.204Z,17.60
2018-12-14T05:01:53.713Z,14.43
2018-12-14T05:04:25.310Z,14.27
2018-12-14T05:06:56.821Z,13.57
2018-12-14T05:09:28.421Z,12.80
2018-12-14T05:11:59.930Z,17.03
2018-12-14T05:14:31.543Z,16.27
2018-12-14T05:17:03.029Z,15.60
2018-12-14T05:19:34.574Z,16.03
2018-12-14T05:22:06.303Z,17.17
2018-12-14T05:24:37.804Z,15.63
2018-12-14T05:27:09.607Z,14.27
2018-12-14T05:29:41.367Z,19.37
2018-12-14T05:32:13.012Z,13.63
2018-12-14T05:34:44.527Z,14.87
2018-12-14T05:37:15.928Z,14.17
2018-12-14T05:39:47.509Z,14.27
2018-12-14T05:42:18.992Z,15.00
2018-12-14T05:44:50.581Z,12.83
2018-12-14T05:47:22.092Z,15.00
2018-12-14T05:49:53.400Z,14.17
2018-12-14T05:52:24.985Z,13.60
2018-12-14T05:54:56.492Z,16.10
2018-12-14T05:57:28.096Z,16.47
2018-12-14T05:59:59.636Z,12.57
2018-12-14T06:02:31.208Z,17.87
2018-12-14T06:05:02.812Z,13.83
2018-12-14T06:07:34.315Z,16.17
2018-12-14T06:10:07.118Z,16.13
2018-12-14T06:12:38.642Z,16.27
2018-12-14T06:15:10.297Z,15.60
2018-12-14T06:17:41.850Z,15.03
2018-12-14T06:20:13.252Z,18.90
2018-12-14T06:22:44.860Z,14.23
2018-12-14T06:25:16.417Z,15.60
2018-12-14T06:27:47.964Z,12.57
2018-12-14T06:30:19.576Z,13.60
2018-12-14T06:32:51.089Z,17.43
2018-12-14T06:35:22.487Z,11.47
2018-12-14T06:37:54.084Z,15.60
2018-12-14T06:40:25.509Z,11.00
2018-12-14T06:42:57.076Z,19.53
2018-12-14T06:45:28.532Z,13.63
2018-12-14T06:48:00.094Z,11.93
2018-12-14T06:50:32.935Z,16.50
2018-12-14T06:53:04.709Z,19.37
2018-12-14T06:55:36.144Z,12.47
2018-12-14T06:58:07.736Z,13.20
2018-12-14T07:00:39.460Z,10.00
2018-12-14T07:03:10.909Z,18.63
2018-12-14T07:05:42.504Z,15.63
2018-12-14T07:08:13.960Z,17.27
2018-12-14T07:10:45.609Z,14.20
2018-12-14T07:13:21.868Z,15.00
2018-12-14T07:15:50.667Z,17.87
2018-12-14T07:18:22.209Z,15.90
2018-12-14T07:20:53.926Z,17.33
2018-12-14T07:23:25.644Z,17.73
2018-12-14T07:25:57.105Z,18.07
2018-12-14T07:28:28.701Z,18.43
2018-12-14T07:31:00.101Z,15.00
2018-12-14T07:33:31.696Z,16.07
2018-12-14T07:36:03.215Z,17.10
2018-12-14T07:38:34.601Z,15.50
2018-12-14T07:41:06.193Z,14.93
2018-12-14T07:43:37.748Z,16.97
2018-12-14T07:46:09.431Z,15.90
2018-12-14T07:48:40.832Z,17.60
2018-12-14T07:51:12.420Z,14.03
2018-12-14T07:53:43.817Z,18.07
2018-12-14T07:56:15.423Z,17.30
2018-12-14T07:58:47.204Z,18.27
2018-12-14T08:01:19.016Z,16.47
2018-12-14T08:03:50.594Z,16.37
2018-12-14T08:06:22.016Z,12.50
2018-12-14T08:08:53.636Z,16.93
2018-12-14T08:11:25.073Z,16.97
2018-12-14T08:13:56.605Z,15.40
2018-12-14T08:16:28.073Z,16.07
2018-12-14T08:18:59.664Z,14.07
2018-12-14T08:21:31.178Z,13.47
2018-12-14T08:24:02.785Z,15.00
2018-12-14T08:26:34.284Z,15.70
2018-12-14T08:29:05.887Z,17.67
2018-12-14T08:31:37.395Z,18.43
2018-12-14T08:34:08.939Z,15.93
2018-12-14T08:36:40.405Z,14.07
2018-12-14T08:39:11.956Z,15.07
2018-12-14T08:41:43.399Z,16.10
2018-12-14T08:44:15.010Z,14.67
2018-12-14T08:46:46.530Z,16.43
2018-12-14T08:49:18.143Z,15.50
2018-12-14T08:51:49.612Z,16.87
2018-12-14T08:54:21.179Z,17.50
2018-12-14T08:56:52.621Z,15.43
2018-12-14T08:59:24.156Z,13.63
2018-12-14T09:01:55.613Z,15.17
2018-12-14T09:04:27.222Z,18.23
2018-12-14T09:06:58.743Z,13.23
2018-12-14T09:09:30.439Z,16.10
2018-12-14T09:12:01.946Z,14.90
2018-12-14T09:14:33.644Z,18.47
2018-12-14T09:17:05.167Z,13.33
2018-12-14T09:19:36.556Z,13.80
2018-12-14T09:22:08.139Z,15.13
2018-12-14T09:24:39.564Z,15.03
2018-12-14T09:27:11.145Z,16.37
2018-12-14T09:29:42.772Z,14.30
2018-12-14T09:32:14.353Z,16.00
2018-12-14T09:34:45.832Z,15.97
2018-12-14T09:37:17.372Z,16.90
2018-12-14T09:39:48.917Z,13.50
2018-12-14T09:42:20.474Z,15.27
2018-12-14T09:44:51.887Z,12.63
2018-12-14T09:47:23.492Z,14.77
2018-12-14T09:49:55.084Z,16.83
2018-12-14T09:52:26.609Z,16.37
2018-12-14T09:54:58.141Z,13.60
2018-12-14T09:57:29.643Z,16.43
2018-12-14T10:00:01.310Z,13.97
2018-12-14T10:02:32.813Z,15.47
2018-12-14T10:05:04.468Z,18.20
2018-12-14T10:07:35.896Z,15.17
2018-12-14T10:10:09.878Z,13.53
2018-12-14T10:12:41.488Z,13.80
2018-12-14T10:15:12.915Z,17.87
2018-12-14T10:17:44.490Z,16.30
2018-12-14T10:20:16.098Z,12.47
2018-12-14T10:22:48.627Z,17.87
2018-12-14T10:25:20.024Z,14.23
2018-12-14T10:27:51.619Z,13.10
2018-12-14T10:30:23.176Z,14.70
2018-12-14T10:32:54.739Z,14.23
2018-12-14T10:35:26.162Z,14.10
2018-12-14T10:37:57.740Z,12.63
2018-12-14T10:40:29.355Z,15.33
2018-12-14T10:43:00.932Z,12.37
2018-12-14T10:45:32.821Z,16.50
2018-12-14T10:48:04.268Z,16.37
2018-12-14T10:50:39.633Z,13.53
2018-12-14T10:53:13.668Z,13.27
2018-12-14T10:55:45.265Z,17.00
2018-12-14T10:58:16.881Z,12.57
2018-12-14T11:00:53.329Z,16.93
2018-12-14T11:03:24.843Z,13.87
2018-12-14T11:05:56.330Z,14.53
2018-12-14T11:08:27.706Z,12.73
2018-12-14T11:10:59.311Z,12.47
2018-12-14T11:13:30.913Z,14.03
2018-12-14T11:16:02.535Z,12.87
2018-12-14T11:18:34.127Z,11.37
2018-12-14T11:21:05.674Z,15.37
2018-12-14T11:23:37.331Z,15.13
2018-12-14T11:26:08.839Z,14.27
2018-12-14T11:28:40.435Z,12.57
2018-12-14T11:31:11.941Z,14.13
2018-12-14T11:33:43.338Z,15.20
2018-12-14T11:36:14.942Z,17.10
2018-12-14T11:38:46.553Z,11.63
2018-12-14T11:41:18.598Z,14.67
2018-12-14T11:43:50.315Z,13.93
2018-12-14T11:46:23.543Z,12.17
2018-12-14T11:48:55.059Z,12.70
2018-12-14T11:51:28.043Z,12.63
2018-12-14T11:53:59.608Z,15.30
2018-12-14T11:56:31.014Z,13.30
2018-12-14T11:59:02.627Z,16.83
2018-12-14T12:01:34.124Z,14.90
2018-12-14T12:04:05.715Z,15.63
2018-12-14T12:06:37.328Z,15.90
2018-12-14T12:09:12.405Z,14.23
2018-12-14T12:11:43.967Z,12.13
2018-12-14T12:14:15.380Z,13.93
2018-12-14T12:16:46.988Z,14.03
2018-12-14T12:19:18.400Z,12.90
2018-12-14T12:21:50.023Z,12.83
2018-12-14T12:24:21.484Z,14.37
2018-12-14T12:26:53.065Z,15.13
2018-12-14T12:29:24.504Z,13.23
2018-12-14T12:31:56.072Z,15.00
2018-12-14T12:34:27.511Z,14.87
2018-12-14T12:36:59.151Z,12.43
2018-12-14T12:39:30.699Z,13.60
2018-12-14T12:42:02.298Z,11.23
2018-12-14T12:44:33.918Z,14.33
2018-12-14T12:47:05.510Z,15.53
2018-12-14T12:49:36.930Z,15.30
2018-12-14T12:52:14.690Z,18.43
2018-12-14T12:54:56.589Z,12.93
2018-12-14T12:57:36.725Z,12.73
2018-12-14T13:00:16.032Z,13.73
2018-12-14T13:02:54.281Z,13.90
2018-12-14T13:05:35.062Z,15.33
2018-12-14T13:08:14.282Z,15.60
2018-12-14T13:10:49.819Z,14.33
2018-12-14T13:13:21.356Z,16.40
2018-12-14T13:15:52.779Z,14.87
2018-12-14T13:18:24.382Z,15.20
2018-12-14T13:20:55.881Z,14.47
2018-12-14T13:23:27.659Z,12.80
2018-12-14T13:25:59.191Z,13.37
2018-12-14T13:28:31.077Z,14.23
2018-12-14T13:31:02.651Z,13.57
2018-12-14T13:33:34.075Z,15.33
2018-12-14T13:36:05.806Z,16.13
2018-12-14T13:38:37.311Z,15.53
2018-12-14T13:41:08.866Z,21.33
2018-12-14T13:43:40.392Z,15.33
2018-12-14T13:46:11.975Z,19.87
2018-12-14T13:48:43.595Z,15.40
2018-12-14T13:51:15.262Z,14.23
2018-12-14T13:53:46.948Z,15.17
2018-12-14T13:56:18.427Z,14.17
2018-12-14T13:58:50.008Z,14.20
2018-12-14T14:01:21.528Z,17.97
2018-12-14T14:03:53.057Z,13.77
2018-12-14T14:06:24.514Z,14.67
2018-12-14T14:08:56.066Z,14.00
2018-12-14T14:11:27.531Z,16.90
2018-12-14T14:13:59.127Z,13.43
2018-12-14T14:16:30.626Z,15.43
2018-12-14T14:19:02.177Z,11.93
2018-12-14T14:21:33.749Z,13.37
2018-12-14T14:24:05.293Z,11.70
2018-12-14T14:26:36.751Z,11.67
2018-12-14T14:29:08.352Z,14.50
2018-12-14T14:31:39.847Z,11.50
2018-12-14T14:34:11.455Z,14.97
2018-12-14T14:36:42.964Z,12.57
2018-12-14T14:39:14.514Z,15.00
2018-12-14T14:41:45.867Z,12.57
2018-12-14T14:44:17.464Z,13.00
2018-12-14T14:46:48.975Z,12.30
2018-12-14T14:49:20.527Z,13.20
2018-12-14T14:51:52.234Z,11.40
2018-12-14T14:54:23.929Z,12.37
2018-12-14T14:56:55.548Z,11.37
2018-12-14T14:59:27.043Z,10.30
2018-12-14T15:01:58.695Z,12.03
2018-12-14T15:04:30.259Z,12.47
2018-12-14T15:07:01.794Z,9.70
2018-12-14T15:09:33.212Z,7.90
2018-12-14T15:12:04.807Z,12.73
2018-12-14T15:14:36.357Z,9.10
2018-12-14T15:17:07.921Z,10.83
2018-12-14T15:19:39.464Z,14.13
2018-12-14T15:22:11.019Z,11.93
2018-12-14T15:24:42.435Z,10.17
2018-12-14T15:27:14.033Z,12.00
2018-12-14T15:29:45.636Z,9.10
2018-12-14T15:32:17.919Z,10.77
2018-12-14T15:34:49.423Z,10.17
2018-12-14T15:37:20.951Z,10.63
2018-12-14T15:39:52.414Z,7.13
2018-12-14T15:42:24.031Z,7.73
2018-12-14T15:44:55.544Z,9.53
2018-12-14T15:47:27.135Z,11.57
2018-12-14T15:49:58.635Z,8.57
2018-12-14T15:52:30.236Z,10.80
2018-12-14T15:55:01.743Z,9.87
2018-12-14T15:57:33.393Z,8.27
2018-12-14T16:00:05.659Z,7.10
2018-12-14T16:02:37.188Z,10.03
2018-12-14T16:05:09.104Z,7.77
2018-12-14T16:07:40.690Z,7.40
2018-12-14T16:10:12.227Z,8.53
2018-12-14T16:12:43.798Z,10.47
2018-12-14T16:15:19.977Z,7.57
2018-12-14T16:17:48.899Z,9.47
2018-12-14T16:20:20.364Z,7.63
2018-12-14T16:22:51.929Z,7.33
2018-12-14T16:25:23.941Z,7.83
2018-12-14T16:27:55.383Z,8.90
2018-12-14T16:30:26.962Z,9.83
2018-12-14T16:32:58.435Z,9.57
2018-12-14T16:35:29.979Z,10.73
2018-12-14T16:38:01.421Z,7.90
2018-12-14T16:40:32.935Z,9.33
2018-12-14T16:43:04.579Z,9.10
2018-12-14T16:45:36.203Z,9.27
2018-12-14T16:48:07.663Z,11.13
2018-12-14T16:50:39.199Z,7.97
2018-12-14T16:53:10.654Z,12.20
2018-12-14T16:55:42.260Z,9.70
2018-12-14T16:58:13.747Z,9.57
2018-12-14T17:00:45.370Z,9.73
2018-12-14T17:03:16.975Z,10.33
2018-12-14T17:05:48.511Z,11.23
2018-12-14T17:08:19.938Z,7.40
2018-12-14T17:10:51.509Z,9.57
2018-12-14T17:13:22.933Z,7.57
2018-12-14T17:15:54.531Z,8.93
2018-12-14T17:18:26.148Z,11.53
2018-12-14T17:20:57.652Z,9.03
2018-12-14T17:23:29.247Z,8.97
2018-12-14T17:26:00.759Z,10.37
2018-12-14T17:28:32.384Z,11.40
2018-12-14T17:31:04.170Z,10.20
2018-12-14T17:33:36.267Z,9.20
2018-12-14T17:36:07.891Z,10.03
2018-12-14T17:38:39.536Z,11.40
2018-12-14T17:41:11.092Z,9.60
2018-12-14T17:43:42.498Z,9.60
2018-12-14T17:46:14.101Z,11.13
2018-12-14T17:48:45.516Z,9.63
2018-12-14T17:51:17.167Z,12.57
2018-12-14T17:53:48.813Z,12.57
2018-12-14T17:56:20.220Z,7.87
2018-12-14T17:58:51.828Z,10.20
2018-12-14T18:01:23.343Z,9.20
2018-12-14T18:03:54.930Z,9.13
2018-12-14T18:06:26.396Z,11.93
2018-12-14T18:08:57.978Z,12.23
2018-12-14T18:11:29.451Z,9.77
2018-12-14T18:14:01.042Z,10.27
2018-12-14T18:16:32.742Z,10.30
2018-12-14T18:19:04.462Z,10.03
2018-12-14T18:21:35.931Z,10.97
2018-12-14T18:24:07.505Z,9.60
2018-12-14T18:26:39.127Z,13.87
2018-12-14T18:29:10.633Z,9.73
2018-12-14T18:31:42.232Z,9.97
2018-12-14T18:34:13.739Z,11.17
2018-12-14T18:36:45.345Z,10.03
2018-12-14T18:39:16.851Z,12.13
2018-12-14T18:41:48.454Z,10.77
2018-12-14T18:44:19.960Z,11.67
2018-12-14T18:46:51.511Z,13.37
2018-12-14T18:49:22.967Z,11.50
2018-12-14T18:51:54.383Z,12.90
2018-12-14T18:54:25.965Z,11.90
2018-12-14T18:56:57.374Z,9.67
2018-12-14T18:59:29.122Z,10.87
2018-12-14T19:02:01.548Z,12.07
2018-12-14T19:04:33.097Z,13.60
2018-12-14T19:07:04.626Z,14.13
2018-12-14T19:09:36.526Z,11.40
2018-12-14T19:12:07.988Z,12.77
2018-12-14T19:14:39.521Z,11.97
2018-12-14T19:17:10.985Z,10.60
2018-12-14T19:19:42.741Z,10.13
2018-12-14T19:22:14.187Z,13.93
2018-12-14T19:24:45.765Z,11.90
2018-12-14T19:27:17.197Z,15.63
2018-12-14T19:29:48.796Z,14.47
2018-12-14T19:32:20.305Z,12.80
2018-12-14T19:34:51.720Z,9.47
2018-12-14T19:37:23.253Z,12.03
2018-12-14T19:39:54.709Z,10.80
2018-12-14T19:42:26.303Z,12.13
2018-12-14T19:44:57.912Z,13.50
2018-12-14T19:47:29.670Z,12.93
2018-12-14T19:50:01.270Z,12.97
2018-12-14T19:52:32.728Z,8.73
2018-12-14T19:55:04.283Z,13.20
2018-12-14T19:57:35.743Z,8.30
2018-12-14T20:00:10.746Z,8.53
2018-12-14T20:02:42.637Z,11.50
2018-12-14T20:05:14.080Z,15.83
2018-12-14T20:07:45.630Z,12.33
2018-12-14T20:10:17.099Z,13.47
2018-12-14T20:12:48.695Z,11.93
2018-12-14T20:15:20.204Z,13.23
2018-12-14T20:17:51.798Z,11.27
2018-12-14T20:20:23.353Z,13.53
2018-12-14T20:22:54.949Z,12.33
2018-12-14T20:25:26.420Z,12.30
2018-12-14T20:27:58.015Z,8.63
2018-12-14T20:30:29.526Z,7.90
2018-12-14T20:33:00.922Z,8.37
2018-12-14T20:35:32.772Z,11.47
2018-12-14T20:38:04.779Z,9.60
2018-12-14T20:40:36.392Z,10.47
2018-12-14T20:43:07.902Z,12.53
2018-12-14T20:45:39.442Z,7.97
2018-12-14T20:48:11.014Z,8.33
2018-12-14T20:50:42.613Z,10.10
2018-12-14T20:53:14.110Z,6.17
2018-12-14T20:55:45.721Z,7.87
2018-12-14T20:58:17.215Z,6.17
2018-12-14T21:00:48.818Z,9.00
2018-12-14T21:03:20.327Z,10.60
2018-12-14T21:05:51.930Z,9.90
2018-12-14T21:08:23.435Z,6.27
2018-12-14T21:10:54.843Z,10.00
2018-12-14T21:13:26.431Z,11.30
2018-12-14T21:15:57.835Z,8.67
2018-12-14T21:18:29.431Z,10.53
2018-12-14T21:21:00.849Z,11.07
2018-12-14T21:23:32.480Z,9.77
2018-12-14T21:26:04.052Z,7.00
2018-12-14T21:28:35.643Z,10.40
2018-12-14T21:31:07.202Z,7.97
2018-12-14T21:33:38.751Z,9.83
2018-12-14T21:36:10.310Z,9.07
2018-12-14T21:38:41.865Z,8.77
2018-12-14T21:41:13.270Z,7.43
2018-12-14T21:43:44.879Z,12.10
2018-12-14T21:46:16.286Z,11.90
2018-12-14T21:48:47.879Z,9.90
2018-12-14T21:51:19.348Z,11.40
2018-12-14T21:53:50.888Z,12.53
2018-12-14T21:56:22.347Z,10.93
2018-12-14T21:58:53.884Z,12.47
2018-12-14T22:01:25.371Z,11.87
2018-12-14T22:03:56.999Z,9.60
2018-12-14T22:06:28.415Z,9.77
2018-12-14T22:08:59.892Z,9.00
2018-12-14T22:11:31.307Z,7.87
2018-12-14T22:14:02.907Z,10.17
2018-12-14T22:16:39.190Z,13.50
2018-12-14T22:19:08.343Z,15.43
2018-12-14T22:21:40.039Z,12.80
2018-12-14T22:24:11.643Z,12.40
2018-12-14T22:26:43.151Z,10.60
2018-12-14T22:29:14.753Z,10.27
2018-12-14T22:31:46.243Z,10.17
2018-12-14T22:34:17.894Z,12.53
2018-12-14T22:36:49.445Z,14.50
2018-12-14T22:39:21.758Z,12.63
2018-12-14T22:41:53.282Z,16.37
2018-12-14T22:44:24.959Z,16.43
2018-12-14T22:46:56.581Z,13.23
2018-12-14T22:49:27.980Z,14.03
2018-12-14T22:51:59.483Z,9.70
2018-12-14T22:54:30.943Z,12.50
2018-12-14T22:57:02.497Z,12.43
2018-12-14T22:59:33.955Z,10.87
2018-12-14T23:02:05.602Z,12.13
2018-12-14T23:04:37.055Z,12.07
2018-12-14T23:07:08.664Z,10.37
2018-12-14T23:09:40.187Z,11.27
2018-12-14T23:12:11.776Z,10.07
2018-12-14T23:14:43.278Z,12.43
2018-12-14T23:17:14.829Z,14.63
2018-12-14T23:19:46.280Z,15.10
2018-12-14T23:22:17.827Z,13.83
2018-12-14T23:24:49.298Z,11.73
2018-12-14T23:27:20.694Z,8.83
2018-12-14T23:29:52.280Z,17.80
2018-12-14T23:32:23.898Z,13.50
2018-12-14T23:34:55.406Z,14.67
2018-12-14T23:37:26.946Z,13.27
2018-12-14T23:39:58.407Z,12.73
2018-12-14T23:42:29.958Z,11.80
2018-12-14T23:45:01.381Z,6.57
2018-12-14T23:47:32.951Z,15.53
2018-12-14T23:50:04.661Z,10.57
2018-12-14T23:52:36.267Z,12.13
2018-12-14T23:55:07.922Z,17.73
2018-12-14T23:57:39.471Z,15.83
